• Join FlightAware (Why Join?)
  • Login
  • US Flag 
09:47AM EDT


 

Airport Tracker/Info


-or-


 

Live Flight TrackerFlight Track Log ✈ SKW5564 ✈ 01-Jul-2013 ✈ KORD - KATL

Flight Track Log - Related Links

Times and Time Zones

All times are in EDT time to prevent confusion due to time zone crossing. See the SKW5564 flight status page for this flight to view local times or setup timezone preferences in your user account.

Time Position Orientation Groundspeed Altitude Reporting Facility
EDT Latitude Longitude Course Direction KTS MPH feet Rate Location/Type
01:25PM 41.4064 -87.6379 161° South  Level Estimated
01:26PM 41.3242 -87.6000 161° South  Level Estimated
01:27PM 41.2419 -87.5620 161° South  Level Estimated
01:28PM 41.1597 -87.5242 161° South  Level Estimated
01:29PM 41.0774 -87.4865 161° South  Level Estimated
01:30PM 40.9952 -87.4489 161° South  Level Estimated
01:31PM 40.9129 -87.4114 161° South  Level Estimated
01:32PM 40.8306 -87.3740 161° South  Level Estimated
01:33PM 40.7482 -87.3366 161° South  Level Estimated
01:34PM 40.6659 -87.2994 161° South  Level Estimated
01:35PM 40.5836 -87.2622 161° South  Level Estimated
01:36PM 40.5012 -87.2252 161° South  Level Estimated
01:37PM 40.4189 -87.1882 161° South  Level Estimated
01:38PM 40.3365 -87.1513 161° South  Level Estimated
01:39PM 40.2541 -87.1145 161° South  Level Estimated
01:40PM 40.1717 -87.0778 161° South  Level Estimated
01:41PM 40.0893 -87.0412 161° South  Level Estimated
01:42PM 40.0069 -87.0047 161° South  Level Estimated
01:43PM 39.9245 -86.9682 161° South  Level Estimated
01:44PM 39.8420 -86.9319 161° South  Level Estimated
01:45PM 39.7596 -86.8956 161° South  Level Estimated
01:46PM 39.6771 -86.8595 161° South  Level Estimated
01:47PM 39.5946 -86.8234 161° South  Level Estimated
01:48PM 39.5121 -86.7874 161° South  Level Estimated
01:49PM 39.4296 -86.7514 161° South  Level Estimated
01:50PM 39.3471 -86.7156 161° South  Level Estimated
01:51PM 39.2646 -86.6799 161° South  Level Estimated
01:52PM 39.1821 -86.6442 161° South  Level Estimated
01:53PM 39.0995 -86.6086 162° South  Level Estimated
01:54PM 39.0170 -86.5731 162° South  Level Estimated
01:55PM 38.9344 -86.5377 162° South  Level Estimated
01:56PM 38.8519 -86.5024 162° South  Level Estimated
01:57PM 38.7693 -86.4671 162° South  Level Estimated
01:58PM 38.6867 -86.4320 162° South  Level Estimated
01:59PM 38.6041 -86.3969 162° South  Level Estimated
02:00PM 38.5215 -86.3619 162° South  Level Estimated
02:01PM 38.4388 -86.3269 162° South  Level Estimated
02:02PM 38.3562 -86.2921 162° South  Level Estimated
02:03PM 38.2735 -86.2573 162° South  Level Estimated
02:04PM 38.1909 -86.2226 162° South  Level Estimated
02:05PM 38.1082 -86.1880 162° South  Level Estimated
02:06PM 38.0255 -86.1535 162° South  Level Estimated
02:07PM 37.9428 -86.1190 162° South  Level Estimated
02:08PM 37.8601 -86.0846 162° South  Level Estimated
02:09PM 37.7774 -86.0503 162° South  Level Estimated
02:10PM 37.6947 -86.0161 162° South  Level Estimated
02:11PM 37.6120 -85.9820 162° South  Level Estimated
02:12PM 37.5292 -85.9479 162° South  Level Estimated
02:13PM 37.4465 -85.9139 162° South  Level Estimated
02:14PM 37.3637 -85.8800 162° South  Level Estimated
02:15PM 37.2810 -85.8461 162° South  Level Estimated
02:16PM 37.1982 -85.8124 162° South  Level Estimated
02:17PM 37.1154 -85.7787 162° South  Level Estimated
02:18PM 37.0326 -85.7450 162° South  Level Estimated
02:19PM 36.9498 -85.7115 162° South  Level Estimated
02:20PM 36.8670 -85.6780 162° South  Level Estimated
02:21PM 36.7842 -85.6446 162° South  Level Estimated
02:22PM 36.7013 -85.6113 162° South  Level Estimated
02:23PM 36.6185 -85.5780 162° South  Level Estimated
02:24PM 36.5356 -85.5448 162° South  Level Estimated
02:25PM 36.4528 -85.5117 162° South  Level Estimated
02:26PM 36.3699 -85.4787 162° South  Level Estimated
02:27PM 36.2870 -85.4457 162° South  Level Estimated
02:28PM 36.2042 -85.4128 162° South  Level Estimated
02:29PM 36.1213 -85.3799 162° South  Level Estimated
02:30PM 36.0383 -85.3472 162° South  Level Estimated
02:31PM 35.9554 -85.3145 162° South  Level Estimated
02:32PM 35.8725 -85.2818 162° South  Level Estimated
02:33PM 35.7896 -85.2493 162° South  Level Estimated
02:34PM 35.7066 -85.2168 162° South  Level Estimated
02:35PM 35.6237 -85.1844 162° South  Level Estimated
02:36PM 35.5407 -85.1520 162° South  Level Estimated
02:37PM 35.4578 -85.1197 162° South  Level Estimated
02:38PM 35.3748 -85.0875 162° South  Level Estimated
02:39PM 35.2918 -85.0553 162° South  Level Estimated
02:40PM 35.2088 -85.0232 162° South  Level Estimated
02:41PM 35.1258 -84.9912 162° South  Level Estimated
02:42PM 35.0428 -84.9592 163° South  Level Estimated
02:43PM 34.9598 -84.9273 163° South  Level Estimated
02:44PM 34.8768 -84.8955 163° South  Level Estimated
02:45PM 34.7937 -84.8637 163° South  Level Estimated
02:46PM 34.7107 -84.8320 163° South  Level Estimated
02:47PM 34.6276 -84.8004 163° South  Level Estimated
02:48PM 34.5446 -84.7688 163° South  Level Estimated
02:49PM 34.4615 -84.7373 163° South  Level Estimated
02:50PM 34.3784 -84.7058 163° South  Level Estimated
02:51PM 34.2953 -84.6745 163° South  Level Estimated
02:52PM 34.2123 -84.6431 163° South  Level Estimated
02:53PM 34.1292 -84.6118 163° South  Level Estimated
02:54PM 34.0461 -84.5806 163° South  Level Estimated
02:55PM 33.9629 -84.5495 163° South  Level Estimated
02:56PM 33.8798 -84.5184 163° South  Level Estimated
02:57PM 33.7967 -84.4874 163° South  Level Estimated
02:58PM 33.7136 -84.4564 163° South  Level Estimated
02:59PM 33.6367 -84.4279 163° South  Level Estimated
03:00PM 33.6367 -84.4279 261° West  Level Estimated
03:01PM 33.6367 -84.4279 261° West  Level Estimated
03:02PM 33.6367 -84.4279 261° West  Level Estimated
03:03PM 33.6367 -84.4279 261° West  Level Estimated
03:04PM 33.6367 -84.4279 261° West  Level Estimated
03:05PM 33.6367 -84.4279 261° West  Level Estimated
03:06PM 33.6367 -84.4279 261° West  Level Estimated
03:07PM 33.6367 -84.4279 261° West  Level Estimated
03:08PM 33.6367 -84.4279 261° West  Level Estimated
03:09PM 33.6367 -84.4279 261° West  Level Estimated
03:10PM 33.6367 -84.4279 261° West  Level Estimated
03:11PM 33.6367 -84.4279 261° West  Level Estimated
03:12PM 33.6367 -84.4279 261° West  Level Estimated
03:13PM 33.6367 -84.4279 261° West  Level Estimated
03:14PM 33.6367 -84.4279 261° West  Level Estimated
03:15PM 33.6367 -84.4279 261° West  Level Estimated